Time;durP1;ratioP1;P1;durP2;ratioP2;P2;SDS_P1;SDS_P2;PMS_P1;PMS_P2;Temp;Humidity;BMP_temperature;BMP_pressure;BME280_temperature;BME280_humidity;BME280_pressure;Samples;Min_cycle;Max_cycle;Signal;HPM_P1;HPM_P2
2021/09/14 00:02:23;;;;;;;3.73;3.43;;;;;;;;;;5072012;28;20238;-57
2021/09/14 00:04:49;;;;;;;3.90;3.60;;;;;;;;;;5071457;28;20200;-58
2021/09/14 00:07:15;;;;;;;3.53;3.33;;;;;;;;;;5071967;28;20192;-58
2021/09/14 00:09:41;;;;;;;4.20;3.80;;;;;;;;;;5069103;28;20259;-58
2021/09/14 00:12:07;;;;;;;3.73;3.43;;;;;;;;;;5071615;28;20242;-58
2021/09/14 00:14:33;;;;;;;5.57;4.10;;;;;;;;;;5071277;28;20195;-57
2021/09/14 00:16:59;;;;;;;3.70;3.40;;;;;;;;;;5072412;28;20202;-58
2021/09/14 00:19:25;;;;;;;4.97;4.20;;;;;;;;;;5070099;28;20180;-58
2021/09/14 00:21:51;;;;;;;3.73;3.43;;;;;;;;;;5071516;28;20579;-57
2021/09/14 00:24:17;;;;;;;4.07;3.77;;;;;;;;;;5070701;28;20185;-59
2021/09/14 00:26:43;;;;;;;4.33;3.97;;;;;;;;;;5071252;28;20185;-58
2021/09/14 00:29:12;;;;;;;4.13;3.73;;;;;;;;;;5068755;28;20214;-58
2021/09/14 00:31:38;;;;;;;4.30;3.53;;;;;;;;;;5069173;28;20207;-59
2021/09/14 00:34:04;;;;;;;4.43;4.03;;;;;;;;;;5072564;28;20204;-58
2021/09/14 00:36:30;;;;;;;4.63;3.80;;;;;;;;;;5071210;28;20185;-59
2021/09/14 00:38:56;;;;;;;4.33;3.70;;;;;;;;;;5070435;28;20181;-58
2021/09/14 00:41:22;;;;;;;4.20;3.90;;;;;;;;;;5082613;28;20176;-59
2021/09/14 00:44:02;;;;;;;4.00;3.70;;;;;;;;;;5071227;28;20263;-58
2021/09/14 00:46:28;;;;;;;4.30;4.00;;;;;;;;;;5071226;28;20532;-58
2021/09/14 00:48:55;;;;;;;4.13;3.70;;;;;;;;;;5070477;28;20280;-59
2021/09/14 00:51:21;;;;;;;3.73;3.43;;;;;;;;;;5070316;28;20191;-59
2021/09/14 00:53:48;;;;;;;4.00;3.50;;;;;;;;;;5061256;28;20207;-59
2021/09/14 00:56:14;;;;;;;4.63;4.23;;;;;;;;;;5072319;28;20594;-59
2021/09/14 00:58:41;;;;;;;4.57;3.70;;;;;;;;;;5071119;28;20172;-63
2021/09/14 01:01:07;;;;;;;3.97;3.67;;;;;;;;;;5069197;28;20265;-59
2021/09/14 01:03:33;;;;;;;3.80;3.40;;;;;;;;;;5069447;28;20236;-58
2021/09/14 01:06:01;;;;;;;4.10;3.80;;;;;;;;;;5069403;28;20180;-59
2021/09/14 01:08:27;;;;;;;4.03;3.73;;;;;;;;;;5068451;28;20306;-59
2021/09/14 01:10:54;;;;;;;5.17;3.73;;;;;;;;;;5069964;28;20220;-58
2021/09/14 01:13:20;;;;;;;3.70;3.40;;;;;;;;;;5068837;28;20302;-58
2021/09/14 01:15:46;;;;;;;3.70;3.40;;;;;;;;;;5070882;28;20270;-59
2021/09/14 01:18:12;;;;;;;4.47;3.53;;;;;;;;;;5070795;28;20226;-59
2021/09/14 01:20:38;;;;;;;3.50;3.20;;;;;;;;;;5070346;28;20185;-58
2021/09/14 01:23:04;;;;;;;3.40;3.20;;;;;;;;;;5069078;28;20185;-59
2021/09/14 01:25:34;;;;;;;3.87;3.50;;;;;;;;;;5068607;28;20203;-58
2021/09/14 01:28:01;;;;;;;3.73;3.40;;;;;;;;;;5065107;28;20180;-59
2021/09/14 01:30:28;;;;;;;3.90;3.53;;;;;;;;;;5068916;28;20186;-58
2021/09/14 01:32:55;;;;;;;4.30;4.00;;;;;;;;;;5067592;28;20207;-59
2021/09/14 01:35:22;;;;;;;3.60;3.23;;;;;;;;;;5073252;28;20764;-59
2021/09/14 01:37:48;;;;;;;3.27;3.07;;;;;;;;;;5075662;28;20195;-58
2021/09/14 01:40:14;;;;;;;4.00;3.60;;;;;;;;;;5068234;28;20181;-59
2021/09/14 01:42:41;;;;;;;3.47;3.23;;;;;;;;;;5068831;28;20578;-58
2021/09/14 01:45:07;;;;;;;3.93;3.63;;;;;;;;;;5067932;28;20202;-59
2021/09/14 01:47:34;;;;;;;3.40;3.10;;;;;;;;;;5070372;28;20581;-59
2021/09/14 01:50:00;;;;;;;3.93;3.53;;;;;;;;;;5069654;28;20180;-58
2021/09/14 01:52:28;;;;;;;3.90;3.60;;;;;;;;;;5070126;28;20200;-59
2021/09/14 01:54:54;;;;;;;4.28;3.88;;;;;;;;;;5067462;28;20506;-58
2021/09/14 01:57:31;;;;;;;3.47;3.27;;;;;;;;;;5069427;28;20535;-57
2021/09/14 01:59:59;;;;;;;3.87;3.57;;;;;;;;;;5068759;28;20177;-58
2021/09/14 02:05:02;;;;;;;3.67;3.37;;;;;;;;;;5069962;28;20196;-58
2021/09/14 02:58:38;;;;;;;4.30;3.90;;;;;;;;;;5073448;28;20190;-57
2021/09/14 02:59:23;;;;;;;4.00;3.70;;;;;;;;;;5068755;28;20315;-58
2021/09/14 03:01:49;;;;;;;5.73;4.23;;;;;;;;;;5072726;28;20176;-58
2021/09/14 03:04:16;;;;;;;4.07;3.67;;;;;;;;;;5072935;28;20241;-58
2021/09/14 03:06:42;;;;;;;4.27;3.87;;;;;;;;;;5073796;28;20688;-58
2021/09/14 03:09:08;;;;;;;3.53;3.33;;;;;;;;;;5071718;28;20618;-58
2021/09/14 03:11:34;;;;;;;3.97;3.67;;;;;;;;;;5073839;28;20267;-58
2021/09/14 03:14:00;;;;;;;4.40;4.00;;;;;;;;;;5068913;28;20202;-58
2021/09/14 03:16:26;;;;;;;5.20;4.83;;;;;;;;;;5071977;28;20641;-58
2021/09/14 03:18:52;;;;;;;4.23;3.90;;;;;;;;;;5073278;28;20180;-58
2021/09/14 03:21:22;;;;;;;4.63;4.23;;;;;;;;;;5073528;28;20177;-58
2021/09/14 03:23:48;;;;;;;4.70;4.30;;;;;;;;;;5055119;28;20187;-58
2021/09/14 03:26:14;;;;;;;4.47;4.07;;;;;;;;;;5088461;28;20199;-58
2021/09/14 03:28:40;;;;;;;4.10;3.80;;;;;;;;;;5070759;28;20184;-58
2021/09/14 03:31:06;;;;;;;6.50;5.97;;;;;;;;;;5071891;28;20267;-58
2021/09/14 03:33:32;;;;;;;4.30;4.00;;;;;;;;;;5072281;28;20298;-58
2021/09/14 03:35:58;;;;;;;4.77;3.70;;;;;;;;;;5072464;28;20190;-58
2021/09/14 03:38:24;;;;;;;4.20;3.80;;;;;;;;;;5070219;28;20534;-58
2021/09/14 03:40:54;;;;;;;6.23;3.83;;;;;;;;;;5072367;28;20168;-58
2021/09/14 03:43:23;;;;;;;4.47;4.10;;;;;;;;;;5067352;28;20186;-58
2021/09/14 03:45:49;;;;;;;4.70;4.30;;;;;;;;;;5071048;28;20187;-57
2021/09/14 03:48:16;;;;;;;4.93;4.53;;;;;;;;;;5070679;28;20214;-57
2021/09/14 03:50:42;;;;;;;4.53;3.93;;;;;;;;;;5068756;28;20281;-58
2021/09/14 03:53:08;;;;;;;4.13;3.77;;;;;;;;;;5071433;28;20211;-57
2021/09/14 03:55:34;;;;;;;4.63;4.30;;;;;;;;;;5069428;28;20190;-57
2021/09/14 03:58:00;;;;;;;4.50;4.10;;;;;;;;;;5069732;28;20178;-57
2021/09/14 04:00:27;;;;;;;4.80;4.40;;;;;;;;;;5070459;28;20625;-57
2021/09/14 04:03:02;;;;;;;4.33;3.93;;;;;;;;;;5070844;28;20247;-57
2021/09/14 04:08:51;;;;;;;4.47;4.07;;;;;;;;;;5025622;28;20238;-57
2021/09/14 04:11:18;;;;;;;3.87;3.60;;;;;;;;;;5023605;28;20233;-57
2021/09/14 04:13:47;;;;;;;5.20;4.80;;;;;;;;;;5046949;28;20221;-58
2021/09/14 04:16:13;;;;;;;4.23;3.93;;;;;;;;;;5086931;28;20239;-58
2021/09/14 04:18:39;;;;;;;4.87;4.47;;;;;;;;;;5070733;28;20197;-57
2021/09/14 04:21:06;;;;;;;5.00;4.57;;;;;;;;;;5070541;28;20203;-58
2021/09/14 04:23:32;;;;;;;4.20;3.90;;;;;;;;;;5069457;28;20180;-57
2021/09/14 04:25:58;;;;;;;4.00;3.70;;;;;;;;;;5070170;28;20182;-57
2021/09/14 04:28:24;;;;;;;4.90;4.00;;;;;;;;;;5071020;28;20188;-57
2021/09/14 04:30:50;;;;;;;4.47;4.07;;;;;;;;;;5066755;28;20184;-57
2021/09/14 04:33:16;;;;;;;7.13;6.63;;;;;;;;;;5062388;28;20206;-58
2021/09/14 04:35:42;;;;;;;3.80;3.50;;;;;;;;;;5070773;28;20236;-57
2021/09/14 04:38:09;;;;;;;5.07;4.30;;;;;;;;;;5067449;28;20267;-58
2021/09/14 04:40:35;;;;;;;4.95;4.47;;;;;;;;;;5070367;28;20513;-58
2021/09/14 04:43:02;;;;;;;4.60;4.30;;;;;;;;;;5070734;28;20178;-57
2021/09/14 04:45:28;;;;;;;4.40;4.00;;;;;;;;;;5064655;28;20182;-57
2021/09/14 04:47:55;;;;;;;4.00;3.70;;;;;;;;;;5068642;28;20188;-58
2021/09/14 04:50:24;;;;;;;5.17;4.53;;;;;;;;;;5066780;28;20176;-58
2021/09/14 04:52:51;;;;;;;4.67;4.30;;;;;;;;;;5067996;28;20200;-58
2021/09/14 04:55:17;;;;;;;4.40;4.00;;;;;;;;;;5069873;28;20263;-58
2021/09/14 04:57:43;;;;;;;4.90;4.50;;;;;;;;;;5048889;28;20569;-58
2021/09/14 05:00:11;;;;;;;5.43;5.03;;;;;;;;;;5067503;28;20165;-58
2021/09/14 05:02:37;;;;;;;4.50;4.10;;;;;;;;;;5060611;28;20674;-58
2021/09/14 05:05:04;;;;;;;5.33;4.83;;;;;;;;;;5068514;28;20165;-58
2021/09/14 05:07:30;;;;;;;5.10;4.70;;;;;;;;;;5067169;28;20574;-58
2021/09/14 05:09:56;;;;;;;6.33;4.87;;;;;;;;;;5062404;28;20741;-58
2021/09/14 05:12:22;;;;;;;4.43;4.13;;;;;;;;;;5064441;28;20196;-58
2021/09/14 05:14:49;;;;;;;4.87;4.30;;;;;;;;;;5065668;28;20168;-58
2021/09/14 05:17:15;;;;;;;4.40;4.00;;;;;;;;;;5066385;28;20268;-58
2021/09/14 05:19:42;;;;;;;4.87;4.47;;;;;;;;;;5067656;28;20263;-58
2021/09/14 05:22:09;;;;;;;4.33;4.00;;;;;;;;;;5064766;28;20180;-58
2021/09/14 05:24:35;;;;;;;5.00;4.50;;;;;;;;;;5048865;28;20181;-58
2021/09/14 05:27:01;;;;;;;4.97;4.57;;;;;;;;;;5067715;28;20184;-58
2021/09/14 05:29:28;;;;;;;5.43;5.03;;;;;;;;;;5067681;28;20212;-58
2021/09/14 05:31:55;;;;;;;5.77;5.23;;;;;;;;;;5081044;28;20261;-58
2021/09/14 05:34:22;;;;;;;5.37;4.70;;;;;;;;;;5066996;28;20239;-57
2021/09/14 05:36:49;;;;;;;4.80;4.40;;;;;;;;;;5070088;28;20203;-58
2021/09/14 05:39:15;;;;;;;8.33;5.33;;;;;;;;;;5070284;28;20614;-57
2021/09/14 05:41:41;;;;;;;7.10;6.40;;;;;;;;;;5070233;28;20176;-56
2021/09/14 05:44:09;;;;;;;6.70;6.13;;;;;;;;;;5066374;28;20180;-57
2021/09/14 05:46:37;;;;;;;7.30;6.67;;;;;;;;;;5060837;28;20187;-57
2021/09/14 05:49:03;;;;;;;7.00;6.40;;;;;;;;;;5071156;28;20182;-57
2021/09/14 05:51:30;;;;;;;7.87;6.77;;;;;;;;;;5068418;28;20212;-56
2021/09/14 05:53:56;;;;;;;7.23;6.57;;;;;;;;;;5068660;28;20209;-57
2021/09/14 05:56:23;;;;;;;7.27;6.60;;;;;;;;;;5065544;28;20314;-57
2021/09/14 05:58:49;;;;;;;7.60;6.93;;;;;;;;;;5049325;28;20556;-57
2021/09/14 06:01:15;;;;;;;7.83;6.80;;;;;;;;;;5067786;28;20238;-57
2021/09/14 06:03:41;;;;;;;8.37;7.57;;;;;;;;;;5067043;28;20188;-57
2021/09/14 06:06:08;;;;;;;8.30;7.30;;;;;;;;;;5069544;28;20279;-57
2021/09/14 06:08:34;;;;;;;8.00;7.20;;;;;;;;;;5066217;28;20195;-57
2021/09/14 06:11:00;;;;;;;9.60;8.00;;;;;;;;;;5068024;28;20655;-57
2021/09/14 06:13:26;;;;;;;8.63;7.83;;;;;;;;;;5066976;28;20281;-57
2021/09/14 06:15:52;;;;;;;11.77;8.17;;;;;;;;;;5065874;28;20643;-57
2021/09/14 06:18:18;;;;;;;11.80;9.30;;;;;;;;;;5070064;28;20270;-57
2021/09/14 06:20:45;;;;;;;8.87;7.37;;;;;;;;;;5071120;28;20185;-57
2021/09/14 06:23:11;;;;;;;9.77;7.87;;;;;;;;;;5065680;28;20192;-57
2021/09/14 06:25:37;;;;;;;10.07;8.70;;;;;;;;;;5064025;28;20563;-57
2021/09/14 06:28:05;;;;;;;10.27;9.27;;;;;;;;;;5064602;28;20176;-57
2021/09/14 06:30:31;;;;;;;9.73;8.83;;;;;;;;;;5066220;28;20184;-57
2021/09/14 06:32:57;;;;;;;9.20;8.30;;;;;;;;;;5062829;28;20615;-57
2021/09/14 06:35:23;;;;;;;9.70;7.80;;;;;;;;;;5065470;28;20180;-57
2021/09/14 06:37:49;;;;;;;12.10;9.10;;;;;;;;;;5063756;28;20535;-57
2021/09/14 06:40:16;;;;;;;11.40;8.67;;;;;;;;;;5063138;28;20238;-57
2021/09/14 06:42:43;;;;;;;8.87;8.07;;;;;;;;;;5063404;28;20203;-57
2021/09/14 06:45:10;;;;;;;11.47;8.70;;;;;;;;;;5064019;28;20196;-57
2021/09/14 06:47:38;;;;;;;9.30;8.27;;;;;;;;;;5078258;28;20653;-57
2021/09/14 06:50:06;;;;;;;8.30;7.33;;;;;;;;;;5064747;28;20603;-57
2021/09/14 06:52:32;;;;;;;9.60;8.63;;;;;;;;;;5063310;28;20279;-57
2021/09/14 06:54:58;;;;;;;9.63;8.03;;;;;;;;;;5059434;28;20189;-57
2021/09/14 06:57:24;;;;;;;10.03;8.13;;;;;;;;;;5058850;28;20418;-57
2021/09/14 06:59:50;;;;;;;12.17;8.07;;;;;;;;;;5068218;28;20558;-57
2021/09/14 07:02:17;;;;;;;8.87;8.10;;;;;;;;;;5066294;28;20218;-57
2021/09/14 07:04:43;;;;;;;11.73;8.30;;;;;;;;;;5059109;28;20181;-57
2021/09/14 07:07:09;;;;;;;10.17;7.87;;;;;;;;;;5080623;28;20177;-57
2021/09/14 07:09:36;;;;;;;9.57;8.27;;;;;;;;;;5065385;28;20224;-57
2021/09/14 07:12:05;;;;;;;9.97;8.97;;;;;;;;;;5059420;28;20194;-57
2021/09/14 07:14:31;;;;;;;8.63;7.83;;;;;;;;;;5063259;28;20211;-57
2021/09/14 07:16:57;;;;;;;7.97;7.17;;;;;;;;;;5069879;28;20220;-57
2021/09/14 07:19:23;;;;;;;8.90;8.10;;;;;;;;;;5067547;28;20179;-57
2021/09/14 07:21:49;;;;;;;8.70;8.00;;;;;;;;;;5074781;28;20267;-57
2021/09/14 07:24:15;;;;;;;9.00;8.13;;;;;;;;;;5065609;28;20259;-57
2021/09/14 07:26:42;;;;;;;8.53;7.20;;;;;;;;;;5070872;28;20196;-57
2021/09/14 07:29:08;;;;;;;10.13;7.50;;;;;;;;;;5064272;28;20184;-57
2021/09/14 07:31:35;;;;;;;11.07;8.13;;;;;;;;;;5074234;28;20592;-57
2021/09/14 07:34:01;;;;;;;9.93;7.47;;;;;;;;;;5066344;28;20206;-57
2021/09/14 07:36:27;;;;;;;9.13;7.60;;;;;;;;;;5068020;28;20178;-58
2021/09/14 07:38:53;;;;;;;7.50;6.90;;;;;;;;;;5066258;28;20182;-57
2021/09/14 07:41:19;;;;;;;8.47;7.63;;;;;;;;;;5070939;28;20175;-57
2021/09/14 07:43:45;;;;;;;9.03;7.60;;;;;;;;;;5071354;28;20181;-57
2021/09/14 07:46:11;;;;;;;7.43;6.73;;;;;;;;;;5071487;28;20267;-57
2021/09/14 07:48:38;;;;;;;8.00;7.20;;;;;;;;;;5063554;28;20190;-57
2021/09/14 07:51:04;;;;;;;7.83;7.13;;;;;;;;;;5070155;28;20181;-57
2021/09/14 07:53:31;;;;;;;8.13;7.33;;;;;;;;;;5052394;28;20207;-57
2021/09/14 07:55:57;;;;;;;7.87;7.07;;;;;;;;;;5069649;28;20184;-57
2021/09/14 07:58:23;;;;;;;10.13;8.40;;;;;;;;;;5053656;28;20249;-57
2021/09/14 08:00:49;;;;;;;8.83;8.03;;;;;;;;;;5065438;28;20187;-58
2021/09/14 08:03:15;;;;;;;10.03;7.40;;;;;;;;;;5071056;28;20180;-57
2021/09/14 08:05:42;;;;;;;6.90;6.23;;;;;;;;;;5066094;28;20176;-57
2021/09/14 08:08:08;;;;;;;6.90;6.30;;;;;;;;;;5067496;28;20661;-57
2021/09/14 08:10:35;;;;;;;8.70;6.77;;;;;;;;;;5063403;28;20243;-57
2021/09/14 08:13:01;;;;;;;8.03;7.23;;;;;;;;;;5070899;28;20720;-57
2021/09/14 08:15:28;;;;;;;7.63;6.97;;;;;;;;;;5065327;28;20182;-58
2021/09/14 08:17:54;;;;;;;8.07;7.20;;;;;;;;;;5069889;28;20176;-58
2021/09/14 08:20:20;;;;;;;6.90;6.20;;;;;;;;;;5071216;28;20623;-58
2021/09/14 08:22:46;;;;;;;8.03;6.57;;;;;;;;;;5069728;28;20185;-59
2021/09/14 08:25:13;;;;;;;7.00;5.90;;;;;;;;;;5069682;28;20216;-59
2021/09/14 08:27:41;;;;;;;5.87;5.37;;;;;;;;;;5070399;28;20280;-59
2021/09/14 08:30:07;;;;;;;6.60;6.00;;;;;;;;;;5065622;28;20188;-58
2021/09/14 08:32:34;;;;;;;6.60;5.90;;;;;;;;;;5065802;28;20219;-59
2021/09/14 08:35:00;;;;;;;6.70;5.90;;;;;;;;;;5069067;28;20172;-59
2021/09/14 08:37:26;;;;;;;6.33;5.37;;;;;;;;;;5061864;28;20268;-58
2021/09/14 08:39:52;;;;;;;6.00;5.27;;;;;;;;;;5061401;28;20192;-59
2021/09/14 08:42:20;;;;;;;6.97;5.90;;;;;;;;;;5068628;28;20177;-59
2021/09/14 08:44:46;;;;;;;5.37;4.80;;;;;;;;;;5063895;28;20524;-59
2021/09/14 08:47:12;;;;;;;5.23;4.73;;;;;;;;;;5069272;28;20184;-59
2021/09/14 08:49:38;;;;;;;5.47;4.97;;;;;;;;;;5067532;28;20191;-59
2021/09/14 08:52:05;;;;;;;5.30;4.80;;;;;;;;;;5068768;28;20195;-59
2021/09/14 08:54:31;;;;;;;5.10;4.70;;;;;;;;;;5067367;28;20253;-59
2021/09/14 08:56:57;;;;;;;5.07;4.67;;;;;;;;;;5069327;28;20176;-58
2021/09/14 08:59:27;;;;;;;5.63;5.23;;;;;;;;;;5067972;28;20853;-59
2021/09/14 09:01:57;;;;;;;4.97;4.67;;;;;;;;;;5070179;28;20177;-59
2021/09/14 09:04:23;;;;;;;5.43;5.03;;;;;;;;;;5069180;28;20184;-58
2021/09/14 09:06:50;;;;;;;4.77;4.37;;;;;;;;;;5068075;28;20188;-59
2021/09/14 09:09:20;;;;;;;4.77;4.37;;;;;;;;;;5067426;28;20301;-58
2021/09/14 09:11:53;;;;;;;5.30;4.90;;;;;;;;;;5069096;28;20550;-59
2021/09/14 09:14:19;;;;;;;5.80;5.33;;;;;;;;;;5067905;28;20307;-59
2021/09/14 09:16:45;;;;;;;5.50;5.00;;;;;;;;;;5068445;28;20180;-59
2021/09/14 09:19:12;;;;;;;5.43;4.63;;;;;;;;;;5068076;28;20184;-59
2021/09/14 09:21:39;;;;;;;4.60;4.30;;;;;;;;;;5068836;28;20623;-59
2021/09/14 09:24:06;;;;;;;5.03;4.53;;;;;;;;;;5067098;28;20237;-59
2021/09/14 09:26:34;;;;;;;6.43;4.97;;;;;;;;;;5068365;28;20193;-59
2021/09/14 09:29:03;;;;;;;4.97;4.57;;;;;;;;;;5068304;28;20191;-59
2021/09/14 09:31:29;;;;;;;5.13;4.73;;;;;;;;;;5069300;28;20681;-59
2021/09/14 09:34:05;;;;;;;4.67;4.30;;;;;;;;;;5066230;28;20200;-59
2021/09/14 09:36:37;;;;;;;4.40;4.10;;;;;;;;;;5069761;28;20187;-59
2021/09/14 09:39:08;;;;;;;5.27;4.77;;;;;;;;;;5064544;28;20242;-59
2021/09/14 09:41:38;;;;;;;5.43;4.93;;;;;;;;;;5066591;28;20205;-58
2021/09/14 09:44:06;;;;;;;4.93;4.50;;;;;;;;;;5069272;28;20302;-58
2021/09/14 09:46:33;;;;;;;4.67;4.27;;;;;;;;;;5070439;28;20191;-58
2021/09/14 09:49:03;;;;;;;5.13;4.40;;;;;;;;;;5068735;28;20544;-59
2021/09/14 09:51:30;;;;;;;5.00;4.60;;;;;;;;;;5069537;28;20607;-58
2021/09/14 09:53:56;;;;;;;4.67;4.23;;;;;;;;;;5067813;28;20201;-58
2021/09/14 09:56:22;;;;;;;5.27;4.83;;;;;;;;;;5067762;28;20173;-59
2021/09/14 09:58:50;;;;;;;4.73;4.20;;;;;;;;;;5068431;28;20180;-58
2021/09/14 10:01:17;;;;;;;6.27;4.73;;;;;;;;;;5067038;28;20548;-59
2021/09/14 10:03:50;;;;;;;5.13;4.60;;;;;;;;;;5067535;28;20242;-58
2021/09/14 10:06:16;;;;;;;5.33;4.80;;;;;;;;;;5066775;28;20189;-59
2021/09/14 10:08:48;;;;;;;4.57;4.27;;;;;;;;;;5066474;28;20184;-58
2021/09/14 10:11:23;;;;;;;6.47;5.10;;;;;;;;;;5066932;28;20265;-59
2021/09/14 10:13:49;;;;;;;5.37;4.80;;;;;;;;;;5066746;28;20600;-59
2021/09/14 10:16:25;;;;;;;5.50;5.00;;;;;;;;;;5068246;28;20773;-59
2021/09/14 10:18:51;;;;;;;5.60;4.90;;;;;;;;;;5067456;28;20254;-59
2021/09/14 10:21:20;;;;;;;5.87;4.50;;;;;;;;;;5065824;28;20279;-59
2021/09/14 10:23:53;;;;;;;5.27;4.87;;;;;;;;;;5066729;28;20189;-59
2021/09/14 10:26:20;;;;;;;5.30;4.63;;;;;;;;;;5064249;28;20188;-59
2021/09/14 10:28:51;;;;;;;5.67;4.63;;;;;;;;;;5066377;28;20586;-59
2021/09/14 10:31:24;;;;;;;4.90;4.50;;;;;;;;;;5064767;28;20188;-59
2021/09/14 10:34:02;;;;;;;4.90;4.47;;;;;;;;;;5067423;28;20219;-59
2021/09/14 10:36:29;;;;;;;4.37;3.97;;;;;;;;;;5074778;28;21535;-59
2021/09/14 10:38:55;;;;;;;5.10;4.63;;;;;;;;;;5067046;28;20191;-59
2021/09/14 10:41:21;;;;;;;5.33;4.33;;;;;;;;;;5067774;28;20177;-59
2021/09/14 10:43:54;;;;;;;5.00;4.60;;;;;;;;;;5068016;28;20526;-59
2021/09/14 10:46:22;;;;;;;4.70;4.30;;;;;;;;;;5065506;28;20191;-60
2021/09/14 10:48:48;;;;;;;5.67;5.17;;;;;;;;;;5065977;28;20523;-59
2021/09/14 10:51:18;;;;;;;4.37;3.97;;;;;;;;;;5063271;28;20666;-59
2021/09/14 10:54:03;;;;;;;4.83;4.43;;;;;;;;;;5056220;28;20193;-59
2021/09/14 10:56:29;;;;;;;4.60;4.20;;;;;;;;;;5058587;28;20508;-59
2021/09/14 10:58:56;;;;;;;4.77;4.37;;;;;;;;;;5060490;28;20708;-59
2021/09/14 11:01:23;;;;;;;4.77;4.33;;;;;;;;;;5063148;28;20177;-59
2021/09/14 11:04:07;;;;;;;5.57;4.40;;;;;;;;;;5068146;28;20234;-59
2021/09/14 11:06:34;;;;;;;4.50;4.13;;;;;;;;;;5067345;28;20495;-59
2021/09/14 11:09:01;;;;;;;5.20;4.70;;;;;;;;;;5065767;28;20237;-59
2021/09/14 11:11:27;;;;;;;4.37;3.97;;;;;;;;;;5066938;28;20184;-59
2021/09/14 11:13:53;;;;;;;5.07;4.57;;;;;;;;;;5054820;28;20679;-59
2021/09/14 11:16:19;;;;;;;5.47;4.63;;;;;;;;;;5063244;28;20454;-59
2021/09/14 11:18:46;;;;;;;4.47;4.17;;;;;;;;;;5067976;28;20173;-59
2021/09/14 11:21:13;;;;;;;4.87;4.27;;;;;;;;;;5067646;28;20631;-59
2021/09/14 11:23:40;;;;;;;4.53;4.13;;;;;;;;;;5067964;28;20184;-59
2021/09/14 11:26:08;;;;;;;6.83;4.50;;;;;;;;;;5071203;28;20184;-59
2021/09/14 11:28:34;;;;;;;4.83;4.30;;;;;;;;;;5068695;28;20212;-59
2021/09/14 11:31:01;;;;;;;4.53;4.13;;;;;;;;;;5067930;28;20192;-59
2021/09/14 11:33:28;;;;;;;4.53;4.23;;;;;;;;;;5069294;28;20674;-59
2021/09/14 11:35:55;;;;;;;4.73;4.33;;;;;;;;;;5053256;28;20181;-59
2021/09/14 11:38:21;;;;;;;4.33;3.90;;;;;;;;;;5069166;28;20181;-59
2021/09/14 11:40:54;;;;;;;5.00;4.60;;;;;;;;;;5068225;28;20186;-60
2021/09/14 11:43:33;;;;;;;4.23;3.83;;;;;;;;;;5082343;28;20184;-59
2021/09/14 11:46:00;;;;;;;4.33;4.00;;;;;;;;;;5081078;28;20197;-59
2021/09/14 11:48:30;;;;;;;7.17;5.27;;;;;;;;;;5070026;28;20193;-60
2021/09/14 11:51:06;;;;;;;5.10;4.57;;;;;;;;;;5067654;28;20272;-59
2021/09/14 11:53:33;;;;;;;4.57;4.17;;;;;;;;;;5063254;28;20221;-59
2021/09/14 11:55:59;;;;;;;4.00;3.70;;;;;;;;;;5052614;28;20177;-59
2021/09/14 11:58:29;;;;;;;5.07;4.13;;;;;;;;;;5068122;28;20543;-59
2021/09/14 12:00:56;;;;;;;3.97;3.67;;;;;;;;;;5066791;28;20186;-59
2021/09/14 12:03:22;;;;;;;5.43;5.03;;;;;;;;;;5068648;28;20297;-59
2021/09/14 12:05:56;;;;;;;4.57;4.17;;;;;;;;;;5065409;28;20556;-59
2021/09/14 12:08:28;;;;;;;4.00;3.70;;;;;;;;;;5067952;28;20189;-60
2021/09/14 12:10:54;;;;;;;4.37;4.07;;;;;;;;;;5061811;28;20220;-59
2021/09/14 12:13:20;;;;;;;4.03;3.73;;;;;;;;;;5065775;28;20208;-60
2021/09/14 12:15:47;;;;;;;4.30;3.90;;;;;;;;;;5068727;28;20635;-59
2021/09/14 12:18:17;;;;;;;4.47;4.07;;;;;;;;;;5069324;28;20172;-59
2021/09/14 12:20:44;;;;;;;4.60;4.20;;;;;;;;;;5068399;28;20191;-59
2021/09/14 12:23:11;;;;;;;4.60;4.30;;;;;;;;;;5067412;28;20720;-59
2021/09/14 12:25:37;;;;;;;4.70;4.20;;;;;;;;;;5066697;28;20193;-59
2021/09/14 12:28:03;;;;;;;4.23;3.93;;;;;;;;;;5068935;28;20702;-59
2021/09/14 12:30:29;;;;;;;4.90;4.10;;;;;;;;;;5069241;28;20238;-59
2021/09/14 12:32:55;;;;;;;4.40;4.10;;;;;;;;;;5067883;28;20236;-59
2021/09/14 12:35:21;;;;;;;3.93;3.63;;;;;;;;;;5078649;28;20264;-59
2021/09/14 12:37:48;;;;;;;4.00;3.70;;;;;;;;;;5070287;28;20183;-59
2021/09/14 12:40:14;;;;;;;4.50;4.10;;;;;;;;;;5070212;28;20307;-59
2021/09/14 12:42:40;;;;;;;4.50;4.13;;;;;;;;;;5071858;28;20169;-59
2021/09/14 12:45:06;;;;;;;4.10;3.80;;;;;;;;;;5085474;28;20249;-59
2021/09/14 12:47:33;;;;;;;4.33;3.97;;;;;;;;;;5070697;28;20185;-59
2021/09/14 12:49:59;;;;;;;4.10;3.80;;;;;;;;;;5070542;28;20181;-59
2021/09/14 12:52:26;;;;;;;4.47;4.07;;;;;;;;;;5070972;28;20298;-59
2021/09/14 12:54:53;;;;;;;4.17;3.80;;;;;;;;;;5068681;28;20659;-59
2021/09/14 12:57:19;;;;;;;3.93;3.63;;;;;;;;;;5068908;28;20185;-59
2021/09/14 12:59:45;;;;;;;4.37;3.97;;;;;;;;;;5070077;28;20576;-59
2021/09/14 13:02:12;;;;;;;5.50;4.60;;;;;;;;;;5069441;28;20548;-59
2021/09/14 13:04:38;;;;;;;4.40;4.00;;;;;;;;;;5068500;28;20192;-59
2021/09/14 13:07:04;;;;;;;4.10;3.80;;;;;;;;;;5070709;28;20207;-59
2021/09/14 13:09:30;;;;;;;3.77;3.50;;;;;;;;;;5068678;28;20217;-59
2021/09/14 13:11:56;;;;;;;4.37;4.07;;;;;;;;;;5070102;28;20191;-59
2021/09/14 13:17:11;;;;;;;4.10;3.80;;;;;;;;;;5070118;28;20612;-60
2021/09/14 13:19:37;;;;;;;4.30;3.87;;;;;;;;;;5068112;28;20188;-60
2021/09/14 13:22:03;;;;;;;4.33;3.93;;;;;;;;;;5062596;28;20543;-60
2021/09/14 13:24:29;;;;;;;4.13;3.83;;;;;;;;;;5067582;28;20188;-59
2021/09/14 13:26:55;;;;;;;3.90;3.60;;;;;;;;;;5069778;28;20587;-60
2021/09/14 13:29:22;;;;;;;4.17;3.83;;;;;;;;;;5068450;28;20190;-59
2021/09/14 13:31:51;;;;;;;5.07;4.27;;;;;;;;;;5069727;28;20574;-59
2021/09/14 13:34:17;;;;;;;4.03;3.73;;;;;;;;;;5068965;28;21498;-59
2021/09/14 13:36:46;;;;;;;4.47;4.07;;;;;;;;;;5073785;28;20650;-59
2021/09/14 13:39:12;;;;;;;4.17;3.87;;;;;;;;;;5067806;28;20556;-59
2021/09/14 13:41:42;;;;;;;4.27;3.97;;;;;;;;;;5067657;28;20266;-59
2021/09/14 13:46:54;;;;;;;5.20;4.10;;;;;;;;;;5064136;28;20210;-59
2021/09/14 13:49:20;;;;;;;4.17;3.87;;;;;;;;;;5065345;28;20630;-60
2021/09/14 13:51:47;;;;;;;3.87;3.57;;;;;;;;;;5067993;28;20639;-59
2021/09/14 13:54:14;;;;;;;4.13;3.83;;;;;;;;;;5073918;28;20203;-59
2021/09/14 13:56:40;;;;;;;4.03;3.57;;;;;;;;;;5066508;28;20282;-60
2021/09/14 13:59:06;;;;;;;4.47;4.17;;;;;;;;;;5068003;28;20592;-59
2021/09/14 14:01:35;;;;;;;4.60;4.00;;;;;;;;;;5068626;28;20299;-60
2021/09/14 14:04:01;;;;;;;4.40;4.03;;;;;;;;;;5069432;28;20590;-60
2021/09/14 14:06:28;;;;;;;3.90;3.50;;;;;;;;;;5067585;28;20589;-60
2021/09/14 14:08:55;;;;;;;3.90;3.50;;;;;;;;;;5067339;28;20700;-60
2021/09/14 14:11:22;;;;;;;4.00;3.70;;;;;;;;;;5068276;28;20683;-60
2021/09/14 14:13:48;;;;;;;3.37;3.10;;;;;;;;;;5066931;28;20204;-59
2021/09/14 14:16:16;;;;;;;4.07;3.77;;;;;;;;;;5059532;28;20290;-59
2021/09/14 14:18:42;;;;;;;4.67;3.33;;;;;;;;;;5068972;28;20177;-59
2021/09/14 14:21:09;;;;;;;4.80;4.23;;;;;;;;;;5068859;28;20272;-59
2021/09/14 14:23:35;;;;;;;4.40;4.00;;;;;;;;;;5067312;28;20580;-59
2021/09/14 14:26:01;;;;;;;3.90;3.60;;;;;;;;;;5068442;28;20185;-59
2021/09/14 14:28:28;;;;;;;4.20;3.80;;;;;;;;;;5067298;28;20192;-59
2021/09/14 14:30:54;;;;;;;4.77;4.40;;;;;;;;;;5068369;28;20758;-59
2021/09/14 14:33:21;;;;;;;4.43;4.13;;;;;;;;;;5068984;28;20306;-59
2021/09/14 14:35:47;;;;;;;4.23;3.93;;;;;;;;;;5068763;28;20646;-59
2021/09/14 14:38:14;;;;;;;3.87;3.57;;;;;;;;;;5075605;28;20650;-59
2021/09/14 14:40:44;;;;;;;5.63;4.23;;;;;;;;;;5065958;28;20188;-59
2021/09/14 14:43:11;;;;;;;4.47;4.07;;;;;;;;;;5067563;28;20187;-59
2021/09/14 14:45:37;;;;;;;4.53;4.13;;;;;;;;;;5066665;28;20250;-59
2021/09/14 14:48:08;;;;;;;4.93;4.17;;;;;;;;;;5065851;28;20212;-60
2021/09/14 14:50:36;;;;;;;4.13;3.60;;;;;;;;;;5068389;28;20606;-59
2021/09/14 14:53:03;;;;;;;4.00;3.70;;;;;;;;;;5066608;28;20238;-59
2021/09/14 14:55:29;;;;;;;4.47;4.07;;;;;;;;;;5066632;28;20183;-59
2021/09/14 14:57:55;;;;;;;4.27;3.87;;;;;;;;;;5068496;28;20596;-59
2021/09/14 15:00:24;;;;;;;3.83;3.53;;;;;;;;;;5068652;28;20623;-59
2021/09/14 15:02:50;;;;;;;4.10;3.80;;;;;;;;;;5067663;28;20210;-59
2021/09/14 15:05:17;;;;;;;4.27;3.97;;;;;;;;;;5063680;28;20257;-59
2021/09/14 15:07:43;;;;;;;4.63;4.20;;;;;;;;;;5066813;28;20339;-59
2021/09/14 15:10:10;;;;;;;4.30;4.00;;;;;;;;;;5063575;28;20702;-59
2021/09/14 15:12:37;;;;;;;4.23;3.93;;;;;;;;;;5062898;28;20187;-59
2021/09/14 15:15:03;;;;;;;4.07;3.67;;;;;;;;;;5066296;28;20243;-59
2021/09/14 15:17:33;;;;;;;5.43;4.00;;;;;;;;;;5060563;28;20180;-59
2021/09/14 15:19:59;;;;;;;3.73;3.43;;;;;;;;;;5064686;28;20176;-59
2021/09/14 15:22:27;;;;;;;4.00;3.70;;;;;;;;;;5069826;28;20644;-59
2021/09/14 15:24:57;;;;;;;4.30;4.00;;;;;;;;;;5064422;28;20615;-59
2021/09/14 15:27:23;;;;;;;3.80;3.50;;;;;;;;;;5066176;28;20528;-59
2021/09/14 15:29:49;;;;;;;3.87;3.57;;;;;;;;;;5053670;28;20196;-59
2021/09/14 15:32:16;;;;;;;4.40;4.00;;;;;;;;;;5065525;28;20215;-59
2021/09/14 15:34:42;;;;;;;3.97;3.67;;;;;;;;;;5068398;28;20488;-59
2021/09/14 15:37:08;;;;;;;3.73;3.43;;;;;;;;;;5066824;28;20194;-59
2021/09/14 15:39:34;;;;;;;4.20;3.90;;;;;;;;;;5067324;28;20268;-59
2021/09/14 15:42:00;;;;;;;3.90;3.60;;;;;;;;;;5061991;28;20179;-59
2021/09/14 15:44:27;;;;;;;4.37;4.07;;;;;;;;;;5071526;28;20212;-59